Сосновка

Карта отелей и гостиниц, располагающихся рядом с аэропортом Сосновка :

Сосновка Мурманская область 66° 30' 5.6988" N, 40° 34' 36.3" E
Код аэродрома ИКАО
ULMS
Код аэродрома RU
УЛМС
Координаты
N66.50158° E040.57675°
Превышение над уровнем моря
8
Основная полоса
01/19
Курс магнитный
009,5/189,5
Длина основной ВПП
575
Ширина основной ВПП
40
Покрытие основной ВПП
Нетвёрдое (грунт)
Освещение ВПП
Нет
Тип: 
Аэродром
Класс аэродрома: 
Принадлежность: 
ГА
Статус: 
Действующий
Сайт: 
E-mail аэродрома: 
Страна: 
Россия
Регион: 
Мурманская область
Город: 
Дополнительная информация: 
Владелец ПП: нет данных. По состоянию на август 2013: ГВПП размечена, новый ветроуказатель, рядом метеостанция. Посадка возможна только вертолетам и самолетам с хорошим запасом мощности двигателя и крепким шасси, т.к. на ВПП имеются травяные кочки высотой по 15-20 см. Могут быть проблемы на разбеге. Для Ан-2 взлет и посадка гарантирована.

Найти трансфер

С помощью этой формы Вы можете найти трансфер из аэропорта Сосновка в город, аэропорт или вокзал:

Карта места

Javascript is required to view this map.

Погода в аэропортах:

Авиационная погода в Кутаиси

Регион: 
Погода METAR: 
UGKO 171530Z VRB02KT 9999 -SHRA FEW013 SCT023CB BKN030 19/18 Q1015 R25/19//60 NOSIG
Время наблюдения
2021-09-17T15:30:00Z
Температура C
19.0
Точка росы
18.0
Направление ветра
0
Скорость ветра (узлы)
2
Метео видимость
6.21
Явления погоды
-SHRA
Условия полета
MVFR

Авиационная погода в Курске

Погода METAR: 
UUOK 171530Z 08004MPS 9999 -RA NSC 10/08 Q1015 R12/290050 NOSIG RMK QFE743/0991
Время наблюдения
2021-09-17T15:30:00Z
Температура C
10.0
Точка росы
8.0
Направление ветра
80
Скорость ветра (узлы)
8
Метео видимость
6.21
Явления погоды
-RA
Условия полета
VFR
Аэропорт подробнее: 

Авиационная погода в аэропорту Международный

Регион: 
Погода METAR: 
UKLL 171630Z 01004MPS 3600 -SHRA BKN004 BKN030CB 17/16 Q1005 R31/290055 NOSIG
Время наблюдения
2021-09-17T16:30:00Z
Температура C
17.0
Точка росы
16.0
Направление ветра
10
Скорость ветра (узлы)
8
Метео видимость
2.24
Явления погоды
-SHRA
Условия полета
LIFR
Аэропорт подробнее: 

Авиационная погода в Могилёве

Регион: 
Погода METAR: 
UMOO 171230Z 07005MPS 4800 -RA BR OVC005 08/07 Q1014 R13/290068 NOSIG RMK QBB160
Время наблюдения
2021-09-17T12:30:00Z
Температура C
8.0
Точка росы
7.0
Направление ветра
70
Скорость ветра (узлы)
10
Метео видимость
2.98
Явления погоды
-RA BR
Условия полета
IFR
Аэропорт подробнее: